createdAt,value
2018-08-12T00:03:02.480Z,89.10
2018-08-12T00:08:06.010Z,89.50
2018-08-12T00:13:09.342Z,89.70
2018-08-12T00:18:12.590Z,89.70
2018-08-12T00:23:15.842Z,90.10
2018-08-12T00:28:19.846Z,90.10
2018-08-12T00:33:23.065Z,90.20
2018-08-12T00:38:26.245Z,90.10
2018-08-12T00:43:29.498Z,90.10
2018-08-12T00:48:32.889Z,90.40
2018-08-12T00:53:36.098Z,90.70
2018-08-12T00:58:39.422Z,90.50
2018-08-12T01:03:42.667Z,90.70
2018-08-12T01:08:46.005Z,90.70
2018-08-12T01:13:49.373Z,90.70
2018-08-12T01:18:52.834Z,90.90
2018-08-12T01:23:56.079Z,91.10
2018-08-12T01:28:59.373Z,90.90
2018-08-12T01:34:08.641Z,90.90
2018-08-12T01:39:11.838Z,91.20
2018-08-12T01:44:15.084Z,91.30
2018-08-12T01:49:18.270Z,91.30
2018-08-12T01:54:21.506Z,91.10
2018-08-12T01:59:24.694Z,91.30
2018-08-12T02:04:27.866Z,91.60
2018-08-12T02:09:32.130Z,91.60
2018-08-12T02:14:35.401Z,91.60
2018-08-12T02:19:38.730Z,91.60
2018-08-12T02:24:41.962Z,91.60
2018-08-12T02:29:45.262Z,92.20
2018-08-12T02:34:49.491Z,92.20
2018-08-12T02:39:52.817Z,92.20
2018-08-12T02:44:56.132Z,92.00
2018-08-12T02:49:59.389Z,91.90
2018-08-12T02:55:02.734Z,91.80
2018-08-12T03:00:06.610Z,91.50
2018-08-12T03:05:10.977Z,91.40
2018-08-12T03:10:14.259Z,91.40
2018-08-12T03:15:17.558Z,91.30
2018-08-12T03:20:20.835Z,91.10
2018-08-12T03:25:24.045Z,91.10
2018-08-12T03:30:27.318Z,90.60
2018-08-12T03:35:30.508Z,90.40
2018-08-12T03:40:33.688Z,90.50
2018-08-12T03:45:38.049Z,90.30
2018-08-12T03:50:41.332Z,90.50
2018-08-12T03:55:44.545Z,90.50
2018-08-12T04:00:47.758Z,90.30
2018-08-12T04:05:51.003Z,90.10
2018-08-12T04:10:54.206Z,89.60
2018-08-12T04:15:57.422Z,89.40
2018-08-12T04:21:00.621Z,89.10
2018-08-12T04:26:03.926Z,88.90
2018-08-12T04:31:09.119Z,88.70
2018-08-12T04:36:22.651Z,88.50
2018-08-12T04:41:29.469Z,88.40
2018-08-12T04:46:35.621Z,87.90
2018-08-12T04:51:39.166Z,87.70
2018-08-12T04:56:42.465Z,87.30
2018-08-12T05:01:45.667Z,86.40
2018-08-12T05:06:48.882Z,86.20
2018-08-12T05:11:52.113Z,86.00
2018-08-12T05:16:55.309Z,85.70
2018-08-12T05:21:58.526Z,85.40
2018-08-12T05:27:01.778Z,85.30
2018-08-12T05:32:05.104Z,85.30
2018-08-12T05:37:08.323Z,85.20
2018-08-12T05:42:11.582Z,85.20
2018-08-12T05:47:15.025Z,85.10
2018-08-12T05:52:18.310Z,85.20
2018-08-12T05:57:29.589Z,86.00
2018-08-12T06:02:40.831Z,86.10
2018-08-12T06:07:47.878Z,85.70
2018-08-12T06:13:02.200Z,86.50
2018-08-12T06:18:06.564Z,86.70
2018-08-12T06:23:10.778Z,86.50
2018-08-12T06:28:14.197Z,85.10
2018-08-12T06:33:22.028Z,83.60
2018-08-12T06:38:26.359Z,82.10
2018-08-12T06:43:29.680Z,81.70
2018-08-12T06:48:33.070Z,79.30
2018-08-12T06:53:37.314Z,77.70
2018-08-12T06:58:40.558Z,75.30
2018-08-12T07:03:43.811Z,74.40
2018-08-12T07:08:47.081Z,74.50
2018-08-12T07:14:03.683Z,73.70
2018-08-12T07:19:08.383Z,73.10
2018-08-12T07:24:12.725Z,71.00
2018-08-12T07:29:16.006Z,70.70
2018-08-12T07:34:19.506Z,67.50
2018-08-12T07:39:23.085Z,67.90
2018-08-12T07:44:27.295Z,68.10
2018-08-12T07:49:32.078Z,69.10
2018-08-12T07:54:37.282Z,68.60
2018-08-12T07:59:45.985Z,68.10
2018-08-12T08:04:51.362Z,68.20
2018-08-12T08:09:56.840Z,67.50
2018-08-12T08:15:00.171Z,66.30
2018-08-12T08:20:10.814Z,64.60
2018-08-12T08:25:19.481Z,64.50
2018-08-12T08:30:23.054Z,63.90
2018-08-12T08:35:31.948Z,62.70
2018-08-12T08:40:44.833Z,61.50
2018-08-12T08:45:48.125Z,61.60
2018-08-12T08:50:57.061Z,61.80
2018-08-12T08:56:02.736Z,60.80
2018-08-12T09:01:07.710Z,59.70
2018-08-12T09:06:11.595Z,60.70
2018-08-12T09:11:16.692Z,59.60
2018-08-12T09:16:20.886Z,57.80
2018-08-12T09:21:24.326Z,58.10
2018-08-12T09:26:27.664Z,58.90
2018-08-12T09:31:37.725Z,57.70
2018-08-12T09:36:44.093Z,58.10
2018-08-12T09:41:48.366Z,56.60
2018-08-12T09:46:51.611Z,58.40
2018-08-12T09:51:55.001Z,56.50
2018-08-12T09:56:58.214Z,59.20
2018-08-12T10:02:01.642Z,58.40
2018-08-12T10:07:06.990Z,59.20
2018-08-12T10:12:14.603Z,59.30
2018-08-12T10:17:17.862Z,57.20
2018-08-12T10:22:21.114Z,57.40
2018-08-12T10:27:27.821Z,56.80
2018-08-12T10:32:31.199Z,56.30
2018-08-12T10:37:34.482Z,57.40
2018-08-12T10:42:37.770Z,57.10
2018-08-12T10:47:41.487Z,56.40
2018-08-12T10:52:45.651Z,56.60
2018-08-12T10:57:49.056Z,55.90
2018-08-12T11:02:52.617Z,55.80
2018-08-12T11:07:57.239Z,54.40
2018-08-12T11:13:06.394Z,53.60
2018-08-12T11:18:09.759Z,52.90
2018-08-12T11:23:12.956Z,52.90
2018-08-12T11:28:16.180Z,52.00
2018-08-12T11:33:19.438Z,52.30
2018-08-12T11:38:23.786Z,52.80
2018-08-12T11:43:27.666Z,52.70
2018-08-12T11:48:31.082Z,51.50
2018-08-12T11:53:36.394Z,50.90
2018-08-12T11:58:39.644Z,50.10
2018-08-12T12:03:43.638Z,51.90
2018-08-12T12:08:54.490Z,50.80
2018-08-12T12:13:57.685Z,49.80
2018-08-12T12:19:01.003Z,48.80
2018-08-12T12:24:07.756Z,49.00
2018-08-12T12:29:12.014Z,48.80
2018-08-12T12:34:15.374Z,49.20
2018-08-12T12:39:18.782Z,47.50
2018-08-12T12:44:23.117Z,46.60
2018-08-12T12:49:26.721Z,46.90
2018-08-12T12:54:30.006Z,48.30
2018-08-12T12:59:35.233Z,47.50
2018-08-12T13:04:39.722Z,46.90
2018-08-12T13:09:42.947Z,46.20
2018-08-12T13:14:46.134Z,45.40
2018-08-12T13:19:49.318Z,45.80
2018-08-12T13:24:57.137Z,44.80
2018-08-12T13:30:02.626Z,45.40
2018-08-12T13:35:06.439Z,44.10
2018-08-12T13:40:13.269Z,44.00
2018-08-12T13:45:16.490Z,44.10
2018-08-12T13:50:22.657Z,43.40
2018-08-12T13:55:26.929Z,43.80
2018-08-12T14:00:30.114Z,44.30
2018-08-12T14:05:33.746Z,41.90
2018-08-12T14:10:37.310Z,42.50
2018-08-12T14:15:40.613Z,43.00
2018-08-12T14:20:46.261Z,42.60
2018-08-12T14:25:49.466Z,41.70
2018-08-12T14:30:52.661Z,41.70
2018-08-12T14:35:55.843Z,40.10
2018-08-12T14:40:59.037Z,41.00
2018-08-12T14:46:03.835Z,41.00
2018-08-12T14:51:07.160Z,39.80
2018-08-12T14:56:11.578Z,41.50
2018-08-12T15:01:15.017Z,41.40
2018-08-12T15:06:18.214Z,40.50
2018-08-12T15:11:21.737Z,40.50
2018-08-12T15:16:24.953Z,40.30
2018-08-12T15:21:28.486Z,40.20
2018-08-12T15:26:31.898Z,40.10
2018-08-12T15:31:35.126Z,39.50
2018-08-12T15:36:38.397Z,39.00
2018-08-12T15:41:42.693Z,39.00
2018-08-12T15:46:45.974Z,37.50
2018-08-12T15:51:50.216Z,38.10
2018-08-12T15:56:53.469Z,38.00
2018-08-12T16:01:57.650Z,38.20
2018-08-12T16:07:03.430Z,36.50
2018-08-12T16:12:08.834Z,36.70
2018-08-12T16:17:12.098Z,36.60
2018-08-12T16:22:16.932Z,36.40
2018-08-12T16:27:20.163Z,37.10
2018-08-12T16:32:23.462Z,36.30
2018-08-12T16:37:26.787Z,36.60
2018-08-12T16:42:30.697Z,37.00
2018-08-12T16:47:35.166Z,36.30
2018-08-12T16:52:38.907Z,36.70
2018-08-12T16:57:42.539Z,37.40
2018-08-12T17:02:46.296Z,37.50
2018-08-12T17:07:49.767Z,37.60
2018-08-12T17:12:53.757Z,38.40
2018-08-12T17:17:57.006Z,39.00
2018-08-12T17:23:00.293Z,38.20
2018-08-12T17:28:03.580Z,39.00
2018-08-12T17:33:06.877Z,38.50
2018-08-12T17:38:10.250Z,38.90
2018-08-12T17:43:14.733Z,38.50
2018-08-12T17:48:18.987Z,38.60
2018-08-12T17:53:22.173Z,39.10
2018-08-12T17:58:25.756Z,39.20
2018-08-12T18:03:39.090Z,39.90
2018-08-12T18:08:43.538Z,40.30
2018-08-12T18:13:47.010Z,40.40
2018-08-12T18:18:52.306Z,40.80
2018-08-12T18:23:55.722Z,41.30
2018-08-12T18:28:58.973Z,41.40
2018-08-12T18:34:02.206Z,42.40
2018-08-12T18:39:07.898Z,42.80
2018-08-12T18:44:11.313Z,43.60
2018-08-12T18:49:14.594Z,44.50
2018-08-12T18:54:23.975Z,45.30
2018-08-12T18:59:27.256Z,46.70
2018-08-12T19:04:30.504Z,47.30
2018-08-12T19:09:34.749Z,46.80
2018-08-12T19:14:40.690Z,48.00
2018-08-12T19:19:44.023Z,48.00
2018-08-12T19:24:47.332Z,49.50
2018-08-12T19:29:51.550Z,49.80
2018-08-12T19:35:00.260Z,54.70
2018-08-12T19:45:31.152Z,53.60
2018-08-12T19:50:34.330Z,55.20
2018-08-12T19:55:39.523Z,56.10
2018-08-12T20:00:43.113Z,58.00
2018-08-12T20:05:46.546Z,58.40
2018-08-12T20:10:49.729Z,59.60
2018-08-12T20:15:53.059Z,60.10
2018-08-12T20:20:59.482Z,61.30
2018-08-12T20:26:02.666Z,62.50
2018-08-12T20:31:05.965Z,63.80
2018-08-12T20:36:11.001Z,63.40
2018-08-12T20:41:14.217Z,59.50
2018-08-12T20:46:17.763Z,57.10
2018-08-12T20:51:22.024Z,56.00
2018-08-12T20:56:25.287Z,55.40
2018-08-12T21:01:33.706Z,55.00
2018-08-12T21:06:36.935Z,55.60
2018-08-12T21:11:40.514Z,56.00
2018-08-12T21:16:43.677Z,55.20
2018-08-12T21:21:46.861Z,55.40
2018-08-12T21:26:50.080Z,56.30
2018-08-12T21:31:54.454Z,56.00
2018-08-12T21:36:57.691Z,57.40
2018-08-12T21:42:00.885Z,56.50
2018-08-12T21:47:04.137Z,56.00
2018-08-12T21:52:07.404Z,56.10
2018-08-12T21:57:10.643Z,54.90
2018-08-12T22:02:13.849Z,54.10
2018-08-12T22:07:17.132Z,53.70
2018-08-12T22:12:20.341Z,53.40
2018-08-12T22:17:25.590Z,53.70
2018-08-12T22:22:30.849Z,54.20
2018-08-12T22:27:34.065Z,54.00
2018-08-12T22:32:37.269Z,55.40
2018-08-12T22:37:40.489Z,55.20
2018-08-12T22:42:43.778Z,55.30
2018-08-12T22:47:47.040Z,55.70
2018-08-12T22:52:51.337Z,56.50
2018-08-12T22:57:54.575Z,57.20
2018-08-12T23:02:57.796Z,57.90
2018-08-12T23:08:07.071Z,59.00
2018-08-12T23:13:10.270Z,58.70
2018-08-12T23:18:13.538Z,58.50
2018-08-12T23:23:16.724Z,58.80
2018-08-12T23:28:19.906Z,58.20
2018-08-12T23:33:23.069Z,58.50
2018-08-12T23:38:26.382Z,59.10
2018-08-12T23:43:29.556Z,59.50
2018-08-12T23:48:32.753Z,60.10
2018-08-12T23:53:36.584Z,60.50
2018-08-12T23:58:39.815Z,62.40
